Time;durP1;ratioP1;P1;durP2;ratioP2;P2;SDS_P1;SDS_P2;PMS_P1;PMS_P2;Temp;Humidity;BMP_temperature;BMP_pressure;BME280_temperature;BME280_humidity;BME280_pressure;Samples;Min_cycle;Max_cycle;Signal;HPM_P1;HPM_P2
2023/04/22 00:02:22;;;;;;;11.52;7.78;;;;;;;-143.48;100.00;118439.88;5053942;28;20056;-29
2023/04/22 00:04:48;;;;;;;13.10;8.05;;;;;;;-143.48;100.00;118439.88;5054003;28;20472;-29
2023/04/22 00:07:14;;;;;;;16.17;8.65;;;;;;;-143.48;100.00;118439.88;5053805;28;20017;-29
2023/04/22 00:09:40;;;;;;;13.70;8.48;;;;;;;-143.48;100.00;118439.88;5053920;28;20028;-29
2023/04/22 00:12:06;;;;;;;13.38;8.65;;;;;;;-143.48;100.00;118439.88;5053740;28;20490;-29
2023/04/22 00:14:31;;;;;;;14.23;7.97;;;;;;;-143.48;100.00;118439.88;5053858;28;20025;-29
2023/04/22 00:16:56;;;;;;;16.55;8.82;;;;;;;-143.48;100.00;118439.88;5052287;28;20025;-29
2023/04/22 00:19:23;;;;;;;12.80;8.85;;;;;;;-143.48;100.00;118439.88;5053494;28;20020;-29
2023/04/22 00:21:49;;;;;;;12.77;8.82;;;;;;;-143.48;100.00;118439.88;5052301;28;20021;-28
2023/04/22 00:24:14;;;;;;;15.82;9.23;;;;;;;-143.48;100.00;118439.88;5053476;28;20383;-29
2023/04/22 00:26:39;;;;;;;12.30;9.40;;;;;;;-143.48;100.00;118439.88;5053377;28;20025;-29
2023/04/22 00:29:05;;;;;;;13.75;9.20;;;;;;;-143.48;100.00;118439.88;5053829;28;20028;-29
2023/04/22 00:31:30;;;;;;;15.85;9.43;;;;;;;-143.48;100.00;118439.88;5053663;28;20387;-30
2023/04/22 00:33:55;;;;;;;13.23;9.77;;;;;;;-143.48;100.00;118439.88;5051376;28;20520;-30
2023/04/22 00:36:21;;;;;;;14.48;9.52;;;;;;;-143.48;100.00;118439.88;5049859;28;20033;-30
2023/04/22 00:38:51;;;;;;;12.65;9.30;;;;;;;-143.48;100.00;118439.88;5051151;28;20108;-29
2023/04/22 00:41:17;;;;;;;14.93;9.80;;;;;;;-143.48;100.00;118439.88;5051094;28;20079;-29
2023/04/22 00:43:42;;;;;;;13.98;9.32;;;;;;;-143.48;100.00;118439.88;5053747;28;20032;-29
2023/04/22 00:46:08;;;;;;;16.17;10.10;;;;;;;-143.48;100.00;118439.88;5055703;28;20024;-30
2023/04/22 00:48:36;;;;;;;14.60;9.43;;;;;;;-143.48;100.00;118439.88;5055798;28;20045;-29
2023/04/22 00:51:01;;;;;;;14.32;9.75;;;;;;;-143.48;100.00;118439.88;5055021;28;20029;-30
2023/04/22 00:53:27;;;;;;;16.70;10.05;;;;;;;-143.48;100.00;118439.88;5055197;28;20121;-29
2023/04/22 00:55:53;;;;;;;14.65;10.30;;;;;;;-143.48;100.00;118439.88;5055176;28;20426;-30
2023/04/22 00:58:21;;;;;;;14.82;10.30;;;;;;;-143.48;100.00;118439.88;5055372;28;20027;-30
2023/04/22 01:00:46;;;;;;;16.40;10.40;;;;;;;-143.48;100.00;118439.88;5055017;28;20021;-29
2023/04/22 01:03:12;;;;;;;19.23;10.88;;;;;;;-143.48;100.00;118439.88;5054825;28;20017;-30
2023/04/22 01:05:38;;;;;;;15.32;10.90;;;;;;;-143.48;100.00;118439.88;5054986;28;20028;-29
2023/04/22 01:08:03;;;;;;;14.40;10.48;;;;;;;-143.48;100.00;118439.88;5055175;28;20029;-30
2023/04/22 01:10:29;;;;;;;18.25;11.05;;;;;;;-143.48;100.00;118439.88;5054923;28;20036;-28
2023/04/22 01:12:54;;;;;;;17.30;11.30;;;;;;;-143.48;100.00;118439.88;5055207;28;20171;-29
2023/04/22 01:15:20;;;;;;;15.82;11.15;;;;;;;-143.48;100.00;118439.88;5056555;28;20100;-29
2023/04/22 01:17:45;;;;;;;16.35;11.23;;;;;;;-143.48;100.00;118439.88;5056872;28;20021;-28
2023/04/22 01:20:11;;;;;;;15.63;11.27;;;;;;;-143.48;100.00;118439.88;5057083;28;20126;-29
2023/04/22 01:22:40;;;;;;;16.98;11.10;;;;;;;-143.48;100.00;118439.88;5056720;28;20029;-28
2023/04/22 01:25:07;;;;;;;17.98;10.77;;;;;;;-143.48;100.00;118439.88;5055619;28;20170;-28
2023/04/22 01:27:33;;;;;;;18.80;11.82;;;;;;;-143.48;100.00;118439.88;5056602;28;20025;-29
2023/04/22 01:29:59;;;;;;;17.23;11.70;;;;;;;-143.48;100.00;118439.88;5056923;28;20027;-29
2023/04/22 01:32:24;;;;;;;15.60;10.98;;;;;;;-143.48;100.00;118439.88;5056456;28;20025;-30
2023/04/22 01:34:50;;;;;;;16.38;11.32;;;;;;;-143.48;100.00;118439.88;5056676;28;20169;-29
2023/04/22 01:37:17;;;;;;;16.23;11.73;;;;;;;-143.48;100.00;118439.88;5056792;28;20028;-29
2023/04/22 01:39:42;;;;;;;17.30;11.77;;;;;;;-143.48;100.00;118439.88;5056976;28;20029;-29
2023/04/22 01:42:08;;;;;;;19.15;12.57;;;;;;;-143.48;100.00;118439.88;5056698;28;20422;-29
2023/04/22 01:44:33;;;;;;;17.45;11.82;;;;;;;-143.48;100.00;118439.88;5056634;28;20471;-29
2023/04/22 01:46:59;;;;;;;18.65;11.55;;;;;;;-143.48;100.00;118439.88;5056116;28;20132;-29
2023/04/22 01:49:24;;;;;;;15.52;11.35;;;;;;;-143.48;100.00;118439.88;5056557;28;20029;-29
2023/04/22 01:51:49;;;;;;;18.13;11.38;;;;;;;-143.48;100.00;118439.88;5056144;28;20475;-29
2023/04/22 01:54:15;;;;;;;16.08;11.93;;;;;;;-143.48;100.00;118439.88;5056034;28;20029;-28
2023/04/22 01:56:40;;;;;;;16.95;10.77;;;;;;;-143.48;100.00;118439.88;5056105;28;20021;-29
2023/04/22 01:59:07;;;;;;;16.65;11.57;;;;;;;-143.48;100.00;118439.88;5054739;28;20024;-28
2023/04/22 02:01:32;;;;;;;17.63;11.27;;;;;;;-143.48;100.00;118439.88;5056234;28;20028;-29
2023/04/22 02:03:58;;;;;;;18.25;11.77;;;;;;;-143.48;100.00;118439.88;5055938;28;20392;-29
2023/04/22 02:06:23;;;;;;;18.48;11.00;;;;;;;-143.48;100.00;118439.88;5056453;28;20028;-29
2023/04/22 02:08:49;;;;;;;14.88;10.32;;;;;;;-143.48;100.00;118439.88;5056107;28;20032;-29
2023/04/22 02:11:14;;;;;;;15.13;10.57;;;;;;;-143.48;100.00;118439.88;5055826;28;20078;-34
2023/04/22 02:13:40;;;;;;;15.13;10.98;;;;;;;-143.48;100.00;118439.88;5056135;28;20048;-29
2023/04/22 02:16:06;;;;;;;15.88;10.65;;;;;;;-143.48;100.00;118439.88;5056041;28;20100;-29
2023/04/22 02:18:32;;;;;;;18.60;11.57;;;;;;;-143.48;100.00;118439.88;5055711;28;20028;-30
2023/04/22 02:20:58;;;;;;;17.77;11.27;;;;;;;-143.48;100.00;118439.88;5055619;28;20039;-29
2023/04/22 02:23:24;;;;;;;16.92;11.65;;;;;;;-143.48;100.00;118439.88;5056160;28;20025;-29
2023/04/22 02:25:51;;;;;;;15.05;11.00;;;;;;;-143.48;100.00;118439.88;5055946;28;20356;-29
2023/04/22 02:28:17;;;;;;;15.07;10.98;;;;;;;-143.48;100.00;118439.88;5055534;28;20029;-29
2023/04/22 02:30:42;;;;;;;15.88;11.18;;;;;;;-143.48;100.00;118439.88;5055619;28;20032;-29
2023/04/22 02:33:07;;;;;;;19.85;11.27;;;;;;;-143.48;100.00;118439.88;5055696;28;20044;-29
2023/04/22 02:35:33;;;;;;;16.27;11.68;;;;;;;-143.48;100.00;118439.88;5055431;28;20056;-29
2023/04/22 02:37:58;;;;;;;17.75;11.38;;;;;;;-143.48;100.00;118439.88;5055296;28;20029;-28
2023/04/22 02:40:24;;;;;;;15.65;11.50;;;;;;;-143.48;100.00;118439.88;5055355;28;20107;-29
2023/04/22 02:42:49;;;;;;;16.70;11.60;;;;;;;-143.48;100.00;118439.88;5055087;28;20023;-29
2023/04/22 02:45:15;;;;;;;20.85;12.60;;;;;;;-143.48;100.00;118439.88;5055195;28;20056;-29
2023/04/22 02:47:40;;;;;;;17.30;11.98;;;;;;;-143.48;100.00;118439.88;5055142;28;20056;-29
2023/04/22 02:50:06;;;;;;;21.00;11.98;;;;;;;-143.48;100.00;118439.88;5055157;28;20025;-29
2023/04/22 02:52:32;;;;;;;20.95;11.60;;;;;;;-143.48;100.00;118439.88;5055179;28;20033;-29
2023/04/22 02:54:58;;;;;;;17.00;10.85;;;;;;;-143.48;100.00;118439.88;5055078;28;20021;-29
2023/04/22 02:57:23;;;;;;;16.85;11.70;;;;;;;-143.48;100.00;118439.88;5054981;28;20079;-30
2023/04/22 02:59:49;;;;;;;16.13;11.57;;;;;;;-143.48;100.00;118439.88;5055030;28;20108;-29
2023/04/22 03:02:15;;;;;;;17.05;11.15;;;;;;;-143.48;100.00;118439.88;5052739;28;20032;-29
2023/04/22 03:04:41;;;;;;;16.95;11.27;;;;;;;-143.48;100.00;118439.88;5052515;28;20394;-29
2023/04/22 03:07:06;;;;;;;16.80;11.30;;;;;;;-143.48;100.00;118439.88;5052360;28;20107;-29
2023/04/22 03:09:31;;;;;;;17.45;11.43;;;;;;;-143.48;100.00;118439.88;5052607;28;20365;-29
2023/04/22 03:11:57;;;;;;;18.65;12.20;;;;;;;-143.48;100.00;118439.88;5052794;28;20482;-32
2023/04/22 03:14:22;;;;;;;16.55;11.55;;;;;;;-143.48;100.00;118439.88;5052486;28;20021;-29
2023/04/22 03:16:47;;;;;;;17.13;12.07;;;;;;;-143.48;100.00;118439.88;5053924;28;20112;-29
2023/04/22 03:19:12;;;;;;;17.33;12.05;;;;;;;-143.48;100.00;118439.88;5054890;28;20071;-29
2023/04/22 03:21:38;;;;;;;18.25;12.07;;;;;;;-143.48;100.00;118439.88;5054504;28;20021;-30
2023/04/22 03:24:03;;;;;;;17.60;11.85;;;;;;;-143.48;100.00;118439.88;5054759;28;20056;-29
2023/04/22 03:26:28;;;;;;;20.13;12.48;;;;;;;-143.48;100.00;118439.88;5054906;28;20124;-29
2023/04/22 03:28:54;;;;;;;18.02;12.15;;;;;;;-143.48;100.00;118439.88;5054611;28;20078;-29
2023/04/22 03:31:19;;;;;;;18.48;12.50;;;;;;;-143.48;100.00;118439.88;5053532;28;20165;-29
2023/04/22 03:33:44;;;;;;;17.80;11.93;;;;;;;-143.48;100.00;118439.88;5054294;28;20048;-29
2023/04/22 03:36:09;;;;;;;17.42;11.88;;;;;;;-143.48;100.00;118439.88;5054402;28;20108;-29
2023/04/22 03:38:35;;;;;;;16.40;11.27;;;;;;;-143.48;100.00;118439.88;5054417;28;20491;-29
2023/04/22 03:41:00;;;;;;;19.88;12.65;;;;;;;-143.48;100.00;118439.88;5054096;28;20447;-30
2023/04/22 03:43:25;;;;;;;18.70;12.50;;;;;;;-143.48;100.00;118439.88;5054333;28;20071;-29
2023/04/22 03:45:51;;;;;;;17.30;12.23;;;;;;;-143.48;100.00;118439.88;5054026;28;20535;-28
2023/04/22 03:48:16;;;;;;;16.92;11.75;;;;;;;-143.48;100.00;118439.88;5054139;28;20438;-29
2023/04/22 03:50:41;;;;;;;16.00;11.52;;;;;;;-143.48;100.00;118439.88;5054173;28;20395;-29
2023/04/22 03:53:07;;;;;;;17.35;11.70;;;;;;;-143.48;100.00;118439.88;5054418;28;20066;-28
2023/04/22 03:55:33;;;;;;;15.15;10.65;;;;;;;-143.48;100.00;118439.88;5054111;28;20135;-28
2023/04/22 03:57:58;;;;;;;14.10;9.88;;;;;;;-143.48;100.00;118439.88;5054068;28;20079;-28
2023/04/22 04:00:24;;;;;;;14.35;10.40;;;;;;;-143.48;100.00;118439.88;5053818;28;20431;-28
2023/04/22 04:02:49;;;;;;;12.25;9.43;;;;;;;-143.48;100.00;118439.88;5053909;28;20032;-29
2023/04/22 04:05:14;;;;;;;13.40;9.63;;;;;;;-143.48;100.00;118439.88;5054051;28;20021;-28
2023/04/22 04:07:40;;;;;;;13.55;9.95;;;;;;;-143.48;100.00;118439.88;5054315;28;20021;-28
2023/04/22 04:10:06;;;;;;;11.82;9.27;;;;;;;-143.48;100.00;118439.88;5054149;28;20074;-29
2023/04/22 04:12:31;;;;;;;12.00;9.35;;;;;;;-143.48;100.00;118439.88;5053502;28;20032;-28
2023/04/22 04:14:56;;;;;;;13.65;10.07;;;;;;;-143.48;100.00;118439.88;5053879;28;20451;-28
2023/04/22 04:17:24;;;;;;;13.20;9.77;;;;;;;-143.48;100.00;118439.88;5053733;28;20098;-29
2023/04/22 04:19:50;;;;;;;16.02;10.68;;;;;;;-143.48;100.00;118439.88;5053832;28;20025;-29
2023/04/22 04:22:17;;;;;;;13.90;10.85;;;;;;;-143.48;100.00;118439.88;5053702;28;20027;-29
2023/04/22 04:24:42;;;;;;;13.63;10.40;;;;;;;-143.48;100.00;118439.88;5053764;28;20025;-29
2023/04/22 04:27:08;;;;;;;13.35;10.48;;;;;;;-143.48;100.00;118439.88;5053396;28;20051;-30
2023/04/22 04:29:34;;;;;;;13.68;10.90;;;;;;;-143.48;100.00;118439.88;5053750;28;20036;-29
2023/04/22 04:32:01;;;;;;;15.60;10.68;;;;;;;-143.48;100.00;118439.88;5053238;28;20036;-30
2023/04/22 04:34:26;;;;;;;16.00;10.88;;;;;;;-143.48;100.00;118439.88;5034672;28;20499;-29
2023/04/22 04:36:51;;;;;;;16.48;11.55;;;;;;;-143.48;100.00;118439.88;5053231;28;20025;-29
2023/04/22 04:39:16;;;;;;;15.13;11.40;;;;;;;-143.48;100.00;118439.88;5053595;28;20076;-29
2023/04/22 04:41:42;;;;;;;18.20;10.90;;;;;;;-143.48;100.00;118439.88;5053256;28;20447;-29
2023/04/22 04:44:08;;;;;;;14.75;11.25;;;;;;;-143.48;100.00;118439.88;5053744;28;20021;-29
2023/04/22 04:46:33;;;;;;;15.60;11.50;;;;;;;-143.48;100.00;118439.88;5053371;28;20036;-29
2023/04/22 04:48:58;;;;;;;15.45;11.43;;;;;;;-143.48;100.00;118439.88;5053445;28;20086;-29
2023/04/22 04:51:24;;;;;;;14.82;11.40;;;;;;;-143.48;100.00;118439.88;5053695;28;20083;-29
2023/04/22 04:53:49;;;;;;;13.82;10.88;;;;;;;-143.48;100.00;118439.88;5053124;28;20032;-29
2023/04/22 04:56:15;;;;;;;17.40;11.65;;;;;;;-143.48;100.00;118439.88;5053426;28;20100;-29
2023/04/22 04:58:41;;;;;;;14.88;11.90;;;;;;;-143.48;100.00;118439.88;5053396;28;20024;-29
2023/04/22 05:01:06;;;;;;;14.05;11.55;;;;;;;-143.48;100.00;118439.88;5053172;28;20024;-28
2023/04/22 05:03:31;;;;;;;16.02;11.60;;;;;;;-143.48;100.00;118439.88;5053018;28;20028;-28
2023/04/22 05:05:57;;;;;;;14.15;11.25;;;;;;;-143.48;100.00;118439.88;5053331;28;20049;-29
2023/04/22 05:08:22;;;;;;;17.77;11.95;;;;;;;-143.48;100.00;118439.88;5053030;28;20107;-29
2023/04/22 05:10:47;;;;;;;15.90;12.18;;;;;;;-143.48;100.00;118439.88;5053048;28;20409;-28
2023/04/22 05:13:13;;;;;;;14.77;11.35;;;;;;;-143.48;100.00;118439.88;5053419;28;20406;-29
2023/04/22 05:15:38;;;;;;;17.17;12.65;;;;;;;-143.48;100.00;118439.88;5052835;28;20517;-28
2023/04/22 05:18:05;;;;;;;17.15;12.20;;;;;;;-143.48;100.00;118439.88;5051764;28;20028;-28
2023/04/22 05:20:30;;;;;;;18.40;12.15;;;;;;;-143.48;100.00;118439.88;5053194;28;20047;-28
2023/04/22 05:22:55;;;;;;;17.15;12.13;;;;;;;-143.48;100.00;118439.88;5053398;28;20021;-29
2023/04/22 05:25:21;;;;;;;15.77;11.95;;;;;;;-143.48;100.00;118439.88;5053170;28;20364;-29
2023/04/22 05:27:46;;;;;;;18.10;12.70;;;;;;;-143.48;100.00;118439.88;5053100;28;20017;-29
2023/04/22 05:30:12;;;;;;;17.83;13.23;;;;;;;-143.48;100.00;118439.88;5055941;28;20460;-29
2023/04/22 05:32:37;;;;;;;20.65;13.95;;;;;;;-143.48;100.00;118439.88;5056756;28;20066;-29
2023/04/22 05:35:02;;;;;;;19.73;13.63;;;;;;;-143.48;100.00;118439.88;5056511;28;20031;-29
2023/04/22 05:37:28;;;;;;;17.55;12.73;;;;;;;-143.48;100.00;118439.88;5056721;28;20021;-30
2023/04/22 05:39:53;;;;;;;17.92;12.90;;;;;;;-143.48;100.00;118439.88;5056702;28;20028;-29
2023/04/22 05:42:18;;;;;;;18.02;13.00;;;;;;;-143.48;100.00;118439.88;5056702;28;20451;-29
2023/04/22 05:44:43;;;;;;;18.10;12.70;;;;;;;-143.48;100.00;118439.88;5056843;28;20025;-29
2023/04/22 05:47:09;;;;;;;17.05;12.27;;;;;;;-143.48;100.00;118439.88;5056198;28;20080;-29
2023/04/22 05:49:34;;;;;;;19.00;12.30;;;;;;;-143.48;100.00;118439.88;5056424;28;20021;-28
2023/04/22 05:52:00;;;;;;;16.50;12.27;;;;;;;-143.48;100.00;118439.88;5056519;28;20368;-29
2023/04/22 05:54:25;;;;;;;18.75;12.60;;;;;;;-143.48;100.00;118439.88;5056119;28;20033;-29
2023/04/22 05:56:50;;;;;;;17.83;12.75;;;;;;;-143.48;100.00;118439.88;5056669;28;20028;-28
2023/04/22 05:59:16;;;;;;;16.48;12.65;;;;;;;-143.48;100.00;118439.88;5056237;28;20029;-29
2023/04/22 06:01:41;;;;;;;15.95;11.65;;;;;;;-143.48;100.00;118439.88;5056332;28;20424;-28
2023/04/22 06:04:08;;;;;;;15.88;12.15;;;;;;;-143.48;100.00;118439.88;5056224;28;20040;-28
2023/04/22 06:06:34;;;;;;;18.02;12.38;;;;;;;-143.48;100.00;118439.88;5055915;28;20021;-28
2023/04/22 06:09:00;;;;;;;18.40;12.40;;;;;;;-143.48;100.00;118439.88;5055878;28;20067;-28
2023/04/22 06:11:25;;;;;;;17.60;12.35;;;;;;;-143.48;100.00;118439.88;5056163;28;20032;-29
2023/04/22 06:13:51;;;;;;;16.35;11.93;;;;;;;-143.48;100.00;118439.88;5056119;28;20031;-29
2023/04/22 06:16:17;;;;;;;17.23;12.35;;;;;;;-143.48;100.00;118439.88;5056110;28;20486;-29
2023/04/22 06:18:42;;;;;;;18.48;13.13;;;;;;;-143.48;100.00;118439.88;5056289;28;20021;-30
2023/04/22 06:21:07;;;;;;;16.60;12.65;;;;;;;-143.48;100.00;118439.88;5055509;28;20020;-29
2023/04/22 06:23:33;;;;;;;20.30;13.07;;;;;;;-143.48;100.00;118439.88;5055936;28;20031;-29
2023/04/22 06:26:00;;;;;;;16.42;12.25;;;;;;;-143.48;99.68;118439.88;5055625;28;20025;-30
2023/04/22 06:28:25;;;;;;;18.48;12.82;;;;;;;-143.48;99.89;118439.88;5055748;28;20020;-29
2023/04/22 06:30:51;;;;;;;17.63;12.10;;;;;;;-143.48;99.77;118439.88;5055713;28;20028;-28
2023/04/22 06:33:16;;;;;;;18.77;13.73;;;;;;;-143.48;100.00;118439.88;5055187;28;20036;-28
2023/04/22 06:35:41;;;;;;;19.48;13.40;;;;;;;-143.48;100.00;118439.88;5055416;28;20498;-28
2023/04/22 06:38:07;;;;;;;22.60;14.30;;;;;;;-143.48;100.00;118439.88;5055608;28;20077;-29
2023/04/22 06:40:32;;;;;;;21.17;14.30;;;;;;;-143.48;100.00;118439.88;5054100;28;20033;-28
2023/04/22 06:42:58;;;;;;;18.17;13.13;;;;;;;-143.48;99.99;118439.88;5055185;28;20013;-28
2023/04/22 06:45:24;;;;;;;18.35;13.07;;;;;;;-143.48;99.73;118439.88;5055492;28;20028;-29
2023/04/22 06:47:52;;;;;;;22.73;13.27;;;;;;;-143.48;99.83;118439.88;5054979;28;20420;-33
2023/04/22 06:50:18;;;;;;;20.25;13.73;;;;;;;-143.48;99.73;118439.88;5055164;28;20498;-29
2023/04/22 06:52:44;;;;;;;19.50;13.60;;;;;;;-143.48;100.00;118439.88;5055030;28;20025;-28
2023/04/22 06:55:09;;;;;;;18.45;13.40;;;;;;;-143.48;100.00;118439.88;5055159;28;20040;-28
2023/04/22 06:57:34;;;;;;;19.67;13.45;;;;;;;-143.48;98.46;118439.88;5054968;28;20028;-29
2023/04/22 07:00:00;;;;;;;22.92;14.70;;;;;;;-143.48;98.14;118439.88;5055477;28;20410;-29
2023/04/22 07:02:25;;;;;;;21.33;14.68;;;;;;;-143.48;99.77;118439.88;5054685;28;20017;-29
2023/04/22 07:04:50;;;;;;;24.58;14.85;;;;;;;-143.48;99.46;118439.88;5055010;28;20044;-29
2023/04/22 07:07:16;;;;;;;22.23;15.32;;;;;;;-143.48;98.94;118439.88;5053829;28;20029;-29
2023/04/22 07:09:41;;;;;;;21.58;14.98;;;;;;;-143.48;98.00;118439.88;5054990;28;20025;-29
2023/04/22 07:12:07;;;;;;;22.17;15.15;;;;;;;-143.48;98.81;118439.88;5054870;28;20061;-29
2023/04/22 07:14:32;;;;;;;22.13;15.38;;;;;;;-143.48;100.00;118439.88;5055198;28;20033;-29
2023/04/22 07:16:58;;;;;;;22.70;15.93;;;;;;;-143.48;97.91;118439.88;5054452;28;20025;-35
2023/04/22 07:19:23;;;;;;;21.33;15.55;;;;;;;-143.48;96.73;118439.88;5054731;28;20029;-29
2023/04/22 07:21:49;;;;;;;21.45;15.88;;;;;;;-143.48;95.46;118439.88;5054824;28;20092;-29
2023/04/22 07:24:14;;;;;;;27.48;15.93;;;;;;;-143.48;94.78;118439.88;5054318;28;20426;-29
2023/04/22 07:26:41;;;;;;;22.13;15.82;;;;;;;-143.48;95.39;118439.88;5054662;28;20025;-30
2023/04/22 07:29:06;;;;;;;21.20;15.25;;;;;;;-143.48;93.97;118439.88;5054617;28;20424;-30
2023/04/22 07:31:33;;;;;;;22.40;15.75;;;;;;;-143.48;93.97;118439.88;5054686;28;20029;-30
2023/04/22 07:33:59;;;;;;;21.35;15.75;;;;;;;-143.48;94.34;118439.88;5054593;28;20031;-30
2023/04/22 07:36:25;;;;;;;23.60;16.52;;;;;;;-143.48;94.81;118439.88;5054482;28;20017;-30
2023/04/22 07:38:50;;;;;;;23.88;15.52;;;;;;;-143.48;93.75;118439.88;5054055;28;20024;-29
2023/04/22 07:41:15;;;;;;;20.55;15.60;;;;;;;-143.48;83.12;118439.88;5054442;28;20043;-30
2023/04/22 07:43:41;;;;;;;21.00;14.35;;;;;;;-143.48;73.96;118439.88;5054191;28;20542;-29
2023/04/22 07:46:06;;;;;;;18.65;14.27;;;;;;;-143.48;76.70;118439.88;5054306;28;20105;-28
2023/04/22 07:48:31;;;;;;;19.70;13.30;;;;;;;-143.48;74.38;118439.88;5053834;28;20077;-29
2023/04/22 07:50:57;;;;;;;14.80;12.35;;;;;;;-143.48;74.09;118439.88;5054018;28;20017;-29
2023/04/22 07:53:22;;;;;;;16.20;12.38;;;;;;;-143.48;78.46;118439.88;5053930;28;20086;-29
2023/04/22 07:55:48;;;;;;;16.10;12.52;;;;;;;-143.48;79.09;118439.88;5054179;28;20067;-29
2023/04/22 07:58:14;;;;;;;16.52;12.05;;;;;;;-143.48;75.98;118439.88;5053993;28;20150;-29
2023/04/22 08:00:39;;;;;;;14.55;11.55;;;;;;;-143.48;76.01;118439.88;5053992;28;20059;-29
2023/04/22 08:03:04;;;;;;;13.77;11.45;;;;;;;-143.48;73.52;118439.88;5053983;28;20088;-29
2023/04/22 08:05:30;;;;;;;13.70;10.73;;;;;;;-143.48;75.60;118439.88;5053680;28;20510;-30
2023/04/22 08:07:55;;;;;;;14.57;11.27;;;;;;;-143.48;77.10;118439.88;5054104;28;20078;-30
2023/04/22 08:10:21;;;;;;;14.50;11.60;;;;;;;-143.48;75.95;118439.88;5053412;28;20021;-29
2023/04/22 08:12:46;;;;;;;16.60;11.75;;;;;;;-143.48;75.76;118439.88;5053932;28;20104;-30
2023/04/22 08:15:11;;;;;;;14.80;12.02;;;;;;;-143.48;74.15;118439.88;5053452;28;20471;-29
2023/04/22 08:17:37;;;;;;;13.80;11.15;;;;;;;-143.48;75.41;118439.88;5053526;28;20029;-31
2023/04/22 08:20:03;;;;;;;14.88;11.55;;;;;;;-143.48;74.46;118439.88;5053645;28;20044;-29
2023/04/22 08:22:29;;;;;;;15.25;11.07;;;;;;;-143.48;68.38;118439.88;5054141;28;20417;-30
2023/04/22 08:24:54;;;;;;;13.23;10.55;;;;;;;-143.48;66.43;118439.88;5053766;28;20104;-29
2023/04/22 08:27:21;;;;;;;13.52;10.48;;;;;;;-143.48;66.73;118439.88;5053499;28;20028;-28
2023/04/22 08:29:47;;;;;;;17.55;9.82;;;;;;;-143.48;65.14;118439.88;5052222;28;20380;-28
2023/04/22 08:32:12;;;;;;;13.55;9.50;;;;;;;-143.48;64.86;118439.88;5051828;28;20017;-29
2023/04/22 08:34:37;;;;;;;11.68;9.20;;;;;;;-143.48;64.98;118439.88;5052386;28;20021;-29
2023/04/22 08:37:03;;;;;;;11.38;8.82;;;;;;;-143.48;65.27;118439.88;5053809;28;20017;-29
2023/04/22 08:39:28;;;;;;;11.30;8.70;;;;;;;-143.48;64.72;118439.88;5053568;28;20031;-28
2023/04/22 08:41:55;;;;;;;10.60;8.55;;;;;;;-143.48;63.53;118439.88;5053198;28;20021;-29
2023/04/22 08:44:21;;;;;;;10.18;7.88;;;;;;;-143.48;61.47;118439.88;5052839;28;20029;-28
2023/04/22 08:46:47;;;;;;;12.18;8.43;;;;;;;-143.48;61.84;118439.88;5053449;28;20106;-29
2023/04/22 08:49:17;;;;;;;10.77;7.65;;;;;;;-143.48;61.12;118439.88;5053024;28;20037;-28
2023/04/22 08:51:44;;;;;;;9.68;8.05;;;;;;;-143.48;58.60;118439.88;5053210;28;20104;-28
2023/04/22 08:54:11;;;;;;;11.75;9.00;;;;;;;-143.48;60.30;118439.88;5052978;28;20040;-28
2023/04/22 08:56:40;;;;;;;13.05;8.52;;;;;;;-143.48;60.41;118439.88;5053204;28;20028;-29
2023/04/22 08:59:06;;;;;;;10.10;8.18;;;;;;;-143.48;59.04;118439.88;5053277;28;20041;-28
2023/04/22 09:01:32;;;;;;;10.95;8.50;;;;;;;-143.48;62.14;118439.88;5052892;28;20111;-29
2023/04/22 09:03:59;;;;;;;13.80;8.65;;;;;;;-143.48;60.99;118439.88;5054018;28;20460;-29
2023/04/22 09:06:24;;;;;;;13.60;8.00;;;;;;;-143.48;59.97;118439.88;5057034;28;20054;-29
2023/04/22 09:08:50;;;;;;;14.98;8.30;;;;;;;-143.48;60.00;118439.88;5056971;28;20047;-29
2023/04/22 09:11:16;;;;;;;12.45;8.00;;;;;;;-143.48;60.75;118439.88;5056723;28;20032;-29
2023/04/22 09:13:42;;;;;;;10.45;7.90;;;;;;;-143.48;61.26;118439.88;5056834;28;20036;-29
2023/04/22 09:16:08;;;;;;;10.52;7.47;;;;;;;-143.48;56.75;118439.88;5056835;28;20100;-29
2023/04/22 09:18:41;;;;;;;14.20;8.02;;;;;;;-143.48;56.68;118439.88;5057175;28;20060;-29
2023/04/22 09:21:06;;;;;;;10.52;7.53;;;;;;;-143.48;59.29;118439.88;5057011;28;20021;-28
2023/04/22 09:23:32;;;;;;;10.20;7.15;;;;;;;-143.48;58.05;118439.88;5056470;28;20034;-29
2023/04/22 09:25:58;;;;;;;13.68;7.82;;;;;;;-143.48;57.51;118439.88;5056708;28;20024;-29
2023/04/22 09:28:23;;;;;;;12.57;8.10;;;;;;;-143.48;57.55;118439.88;5056254;28;20031;-29
2023/04/22 09:30:48;;;;;;;9.77;7.88;;;;;;;-143.48;58.28;118439.88;5056617;28;20464;-29
2023/04/22 09:33:14;;;;;;;10.07;7.85;;;;;;;-143.48;59.97;118439.88;5056842;28;20040;-29
2023/04/22 09:35:40;;;;;;;11.02;7.53;;;;;;;-143.48;57.19;118439.88;5056616;28;20493;-29
2023/04/22 09:38:08;;;;;;;8.98;7.22;;;;;;;-143.48;56.85;118439.88;5056441;28;20035;-30
2023/04/22 09:40:34;;;;;;;11.45;7.78;;;;;;;-143.48;56.96;118439.88;5056340;28;20029;-30
2023/04/22 09:43:02;;;;;;;10.02;7.32;;;;;;;-143.48;59.25;118439.88;5056526;28;20442;-29
2023/04/22 09:45:38;;;;;;;9.65;7.90;;;;;;;-143.48;54.60;118439.88;5056216;28;20438;-30
2023/04/22 09:48:16;;;;;;;9.07;7.72;;;;;;;-143.48;55.57;118439.88;5056130;28;20080;-31
2023/04/22 09:50:49;;;;;;;10.23;7.43;;;;;;;-143.48;55.13;118439.88;5056656;28;20028;-30
2023/04/22 09:53:17;;;;;;;10.77;7.43;;;;;;;-143.48;54.49;118439.88;5056630;28;20117;-30
2023/04/22 09:55:46;;;;;;;9.27;7.40;;;;;;;-143.48;54.82;118439.88;5056691;28;20126;-30
2023/04/22 09:58:13;;;;;;;9.20;7.20;;;;;;;-143.48;53.58;118439.88;5056075;28;20029;-29
2023/04/22 10:00:42;;;;;;;9.90;7.13;;;;;;;-143.48;52.29;118439.88;5056239;28;20379;-30
2023/04/22 10:03:07;;;;;;;9.18;7.30;;;;;;;-143.48;53.76;118439.88;5055932;28;20490;-30
2023/04/22 10:05:36;;;;;;;9.23;6.90;;;;;;;-143.48;53.75;118439.88;5056100;28;20029;-30
2023/04/22 10:08:04;;;;;;;8.88;6.43;;;;;;;-143.48;51.69;118439.88;5056103;28;20036;-29
2023/04/22 10:10:29;;;;;;;10.30;7.45;;;;;;;-143.48;51.89;118439.88;5055760;28;20036;-30
2023/04/22 10:12:55;;;;;;;11.82;7.60;;;;;;;-143.48;51.22;118439.88;5055938;28;20028;-30
2023/04/22 10:15:21;;;;;;;8.75;6.82;;;;;;;-143.48;52.09;118439.88;5055463;28;20471;-30
2023/04/22 10:17:46;;;;;;;15.77;8.32;;;;;;;-143.48;55.81;118439.88;5055648;28;20062;-30
2023/04/22 10:20:16;;;;;;;11.80;8.70;;;;;;;-143.48;54.80;118439.88;5055476;28;20033;-30
2023/04/22 10:22:42;;;;;;;13.20;9.02;;;;;;;-143.48;53.77;118439.88;5055350;28;20013;-30
2023/04/22 10:25:21;;;;;;;12.13;7.55;;;;;;;-143.48;52.78;118439.88;5055370;28;20532;-30
2023/04/22 10:28:15;;;;;;;11.70;7.65;;;;;;;-143.48;53.50;118439.88;5055593;28;20502;-29
2023/04/22 10:30:40;;;;;;;;;;;;;;;-143.48;52.75;118439.88;5054666;28;20119;-30
2023/04/22 10:33:35;;;;;;;14.33;8.60;;;;;;;-143.48;53.44;118439.88;5054882;28;20431;-29
2023/04/22 10:36:16;;;;;;;12.65;8.30;;;;;;;-143.48;54.47;118439.88;5054146;28;20766;-30
2023/04/22 10:39:02;;;;;;;9.50;7.88;;;;;;;-143.48;53.61;118439.88;5055980;28;20360;-30
2023/04/22 10:41:33;;;;;;;9.77;8.18;;;;;;;-143.48;54.53;118439.88;5051420;28;20090;-31
2023/04/22 10:44:08;;;;;;;11.80;8.45;;;;;;;-143.48;57.11;118439.88;5053800;28;20515;-30
2023/04/22 10:46:35;;;;;;;14.60;8.52;;;;;;;-143.48;56.40;118439.88;5054845;28;20060;-30
2023/04/22 10:49:12;;;;;;;12.50;8.55;;;;;;;-143.48;56.14;118439.88;5055124;28;20029;-29